Friday, October 19, 2018, 2:52 AM EDT
Back to Local

KFDK, Frederick, Frederick Municipal Airport

Location: Frederick, MD, United States Lat: 39.417
Local Time: 2:52 AM EDT ( 6:52 GMT) Lon: -77.374
Time Zone: US/Eastern Elev: 301 ft

Show me the last for .
Show Coded

Time T Td Feel RH Dir Speed Gust Alt SLP Vis Weather Sky Remarks
2018-10-19 02:25 37 37 - 100 - Calm - 30.41 - 10 CLR None
2018-10-19 02:05 36 36 - 100 - Calm - 30.41 - 10 CLR None
2018-10-19 01:45 37 37 - 100 - Calm - 30.41 - 10 CLR None
2018-10-19 01:25 37 37 - 100 - Calm - 30.41 - 10 CLR None
2018-10-19 01:05 37 36 - 93 - Calm - 30.41 - 10 CLR None
2018-10-19 00:45 37 37 - 100 - Calm - 30.41 - 10 CLR None
2018-10-19 00:25 39 37 - 93 - Calm - 30.42 - 10 CLR None
2018-10-19 00:05 41 37 - 86 - Calm - 30.42 - 10 CLR None
2018-10-18 23:45 37 37 - 100 - Calm - 30.42 - 10 CLR None
2018-10-18 23:25 41 37 - 86 - Calm - 30.43 - 10 CLR None
2018-10-18 23:05 41 39 - 93 - Calm - 30.42 - 10 CLR None
2018-10-18 22:45 41 37 - 86 - Calm - 30.42 - 10 CLR None
2018-10-18 22:25 39 39 - 100 - Calm - 30.43 - 10 CLR None
2018-10-18 22:05 41 41 - 100 - Calm - 30.43 - 10 CLR None
2018-10-18 21:45 41 41 - 100 - Calm - 30.43 - 10 CLR None
2018-10-18 21:25 41 39 - 93 - Calm - 30.43 - 10 CLR None
2018-10-18 21:05 41 39 - 93 - Calm - 30.43 - 10 CLR None
2018-10-18 20:47 43 41 - 93 - Calm - 30.42 - 10 CLR None
2018-10-18 19:47 46 39 - 75 - Calm - 30.42 - 10 CLR None
2018-10-18 18:47 52 36 - 53 - Calm - 30.41 - 10 CLR None
2018-10-18 17:47 55 34 - 43 - Calm - 30.40 - 10 CLR None
2018-10-18 16:47 57 34 - 41 300° 8 - 30.40 - 10 CLR None
2018-10-18 15:50 57 32 - 38 290° 12 - 30.41 - 10 CLR None
2018-10-18 14:47 55 34 - 43 300° 12 17 30.43 - 10 CLR None
2018-10-18 13:50 55 34 - 43 300° 5 - 30.44 - 10 FEW050 None
2018-10-18 12:49 55 34 - 43 300° 14 18 30.46 - 10 FEW060 None
2018-10-18 11:47 54 32 - 43 320° 9 - 30.47 - 10 SCT060 None
2018-10-18 09:47 52 32 - 46 310° 14 18 30.46 - 10 BKN050 None
2018-10-18 08:47 48 30 45 49 300° 7 - 30.45 - 10 BKN060 None
2018-10-18 07:49 45 30 41 56 320° 7 - 30.43 - 10 BKN060 None
2018-10-18 06:50 43 30 39 60 290° 6 - 30.40 - 10 CLR None
2018-10-18 06:45 43 30 40 60 300° 5 - 30.40 - 10 CLR None
2018-10-18 06:25 43 30 39 60 310° 6 - 30.40 - 10 CLR None
2018-10-18 05:45 46 30 42 52 320° 8 - 30.38 - 10 SCT070 None
2018-10-18 05:25 46 30 44 52 340° 5 - 30.38 - 10 BKN070 None
2018-10-18 05:05 46 32 - 56 - Calm - 30.38 - 10 OVC070 None
2018-10-18 04:45 48 32 - 53 - Calm - 30.37 - 10 OVC070 None
2018-10-18 04:25 48 32 - 53 - Calm - 30.36 - 10 OVC070 None
2018-10-18 04:05 48 32 - 53 - Calm - 30.35 - 10 OVC070 None
2018-10-18 03:45 50 32 - 49 - Calm - 30.35 - 10 OVC070 None
2018-10-18 03:25 50 32 46 49 340° 10 - 30.35 - 10 OVC070 None
2018-10-18 03:05 50 32 46 49 340° 10 - 30.34 - 10 OVC070 None

Support USWX by starting your Amazon purchase here.